Time;durP1;ratioP1;P1;durP2;ratioP2;P2;SDS_P1;SDS_P2;PMS_P1;PMS_P2;Temp;Humidity;BMP_temperature;BMP_pressure;BME280_temperature;BME280_humidity;BME280_pressure;Samples;Min_cycle;Max_cycle;Signal;HPM_P1;HPM_P2
2024/04/12 00:01:12;;;;;;;4.73;1.43;;;;;;;9.15;71.27;101510.28;5373572;26;20273;-74
2024/04/12 00:03:41;;;;;;;5.20;1.60;;;;;;;9.15;71.24;101512.91;5385683;26;20236;-75
2024/04/12 00:06:17;;;;;;;6.40;1.60;;;;;;;9.14;70.96;101514.66;5376375;26;20229;-75
2024/04/12 00:08:47;;;;;;;5.93;1.37;;;;;;;9.13;71.48;101509.41;5396340;26;20273;-74
2024/04/12 00:11:16;;;;;;;4.13;1.60;;;;;;;9.12;71.10;101519.00;5383953;26;20262;-75
2024/04/12 00:13:45;;;;;;;4.20;1.30;;;;;;;9.12;70.78;101524.22;5380717;26;20235;-75
2024/04/12 00:16:10;;;;;;;4.37;1.43;;;;;;;9.11;71.29;101522.50;5379680;26;20280;-75
2024/04/12 00:18:39;;;;;;;3.40;1.40;;;;;;;9.11;71.00;101529.47;5379229;26;20229;-75
2024/04/12 00:21:05;;;;;;;5.47;1.20;;;;;;;9.10;71.04;101533.81;5376820;26;20304;-75
2024/04/12 00:23:39;;;;;;;8.20;1.40;;;;;;;9.05;71.18;101522.53;5388376;26;20228;-75
2024/04/12 00:26:05;;;;;;;6.30;1.70;;;;;;;9.07;70.88;101527.72;5367860;26;20283;-75
2024/04/12 00:28:36;;;;;;;5.40;1.60;;;;;;;9.08;70.99;101532.97;5378796;26;20228;-74
2024/04/12 00:31:06;;;;;;;4.27;1.30;;;;;;;9.06;70.92;101537.31;5390867;26;20571;-75
2024/04/12 00:33:35;;;;;;;4.80;1.33;;;;;;;9.06;70.52;101536.44;5379425;26;20647;-75
2024/04/12 00:36:07;;;;;;;4.47;1.43;;;;;;;8.98;70.80;101533.84;5391201;26;20300;-76
2024/04/12 00:38:41;;;;;;;3.67;1.40;;;;;;;9.05;70.63;101540.81;5375922;26;20241;-75
2024/04/12 00:41:11;;;;;;;5.13;1.30;;;;;;;9.02;70.75;101551.25;5381634;26;20692;-72
2024/04/12 00:43:48;;;;;;;3.43;1.77;;;;;;;9.03;70.71;101557.34;5385769;26;20574;-72
2024/04/12 00:46:16;;;;;;;6.50;1.63;;;;;;;9.01;70.57;101562.56;5380018;26;20232;-72
2024/04/12 00:48:45;;;;;;;5.03;1.50;;;;;;;9.00;70.52;101563.44;5381028;26;20235;-72
2024/04/12 00:51:17;;;;;;;4.33;1.70;;;;;;;8.98;70.49;101565.19;5394506;26;20247;-72
2024/04/12 00:53:56;;;;;;;10.33;1.53;;;;;;;8.99;70.60;101572.16;5372560;26;20955;-73
2024/04/12 00:56:27;;;;;;;5.23;1.90;;;;;;;8.97;70.57;101576.50;5390475;26;20352;-72
2024/04/12 00:58:56;;;;;;;4.53;1.60;;;;;;;8.96;70.33;101577.38;5384792;26;20235;-72
2024/04/12 01:01:24;;;;;;;4.80;1.77;;;;;;;8.84;70.56;101551.31;5378063;26;20237;-73
2024/04/12 01:03:54;;;;;;;4.73;1.70;;;;;;;8.93;70.53;101561.69;5378948;26;20245;-73
2024/04/12 01:06:24;;;;;;;7.30;1.70;;;;;;;8.89;70.25;101560.00;5390071;26;20358;-74
2024/04/12 01:08:57;;;;;;;6.17;1.40;;;;;;;8.90;70.37;101573.06;5365657;26;20713;-73
2024/04/12 01:11:27;;;;;;;9.17;1.67;;;;;;;8.88;70.44;101573.94;5388979;26;20240;-72
2024/04/12 01:13:54;;;;;;;3.63;1.53;;;;;;;8.89;70.36;101578.25;5377667;26;20283;-73
2024/04/12 01:16:24;;;;;;;4.83;1.70;;;;;;;8.87;70.15;101585.22;5372145;26;20275;-73
2024/04/12 01:18:54;;;;;;;4.10;1.33;;;;;;;8.87;70.13;101595.66;5385424;26;20289;-73
2024/04/12 01:21:24;;;;;;;6.03;1.57;;;;;;;8.84;70.19;101606.97;5373660;26;20291;-73
2024/04/12 01:23:53;;;;;;;4.70;1.33;;;;;;;8.82;70.06;101608.72;5379475;26;20287;-73
2024/04/12 01:26:27;;;;;;;4.33;1.50;;;;;;;8.83;70.10;101612.19;5381814;26;20288;-73
2024/04/12 01:28:56;;;;;;;5.83;1.97;;;;;;;8.74;70.16;101592.22;5374666;26;20236;-73
2024/04/12 01:31:27;;;;;;;6.60;1.90;;;;;;;8.79;69.94;101600.00;5387709;26;20673;-73
2024/04/12 01:33:53;;;;;;;5.63;1.53;;;;;;;8.77;70.13;101605.25;5389996;26;20239;-73
2024/04/12 01:36:24;;;;;;;6.60;1.43;;;;;;;8.77;69.92;101607.88;5376800;26;20239;-73
2024/04/12 01:38:53;;;;;;;8.03;2.07;;;;;;;8.77;70.06;101607.00;5390788;26;20766;-73
2024/04/12 01:41:31;;;;;;;8.07;2.07;;;;;;;8.69;70.07;101604.41;5376910;26;21998;-72
2024/04/12 01:44:04;;;;;;;6.83;1.57;;;;;;;8.73;70.10;101615.69;5376642;26;20764;-73
2024/04/12 01:46:34;;;;;;;7.33;1.70;;;;;;;8.70;70.07;101613.94;5384785;26;20233;-73
2024/04/12 01:49:01;;;;;;;7.57;1.70;;;;;;;8.68;69.95;101618.31;5372395;26;20229;-73
2024/04/12 01:51:34;;;;;;;5.30;1.40;;;;;;;8.61;69.70;101609.63;5376258;26;20232;-73
2024/04/12 01:54:00;;;;;;;9.63;1.80;;;;;;;8.66;70.10;101622.66;5384566;26;20339;-73
2024/04/12 01:56:36;;;;;;;7.87;1.70;;;;;;;8.63;70.02;101626.16;5371411;26;20234;-73
2024/04/12 01:59:01;;;;;;;5.83;1.70;;;;;;;8.64;70.05;101633.09;5385443;26;20239;-72
2024/04/12 02:01:33;;;;;;;9.93;2.40;;;;;;;8.62;70.04;101645.28;5378672;26;20236;-73
2024/04/12 02:04:02;;;;;;;5.10;1.80;;;;;;;8.56;69.75;101631.34;5381726;26;20241;-73
2024/04/12 02:06:33;;;;;;;7.53;1.67;;;;;;;8.58;69.79;101633.09;5382583;26;20232;-73
2024/04/12 02:08:59;;;;;;;6.47;1.90;;;;;;;8.58;69.92;101648.75;5380366;26;20356;-73
2024/04/12 02:11:27;;;;;;;6.30;1.67;;;;;;;8.58;70.01;101653.09;5378779;26;20233;-70
2024/04/12 02:13:57;;;;;;;7.27;1.80;;;;;;;8.58;69.99;101658.31;5384180;26;20578;-70
2024/04/12 02:16:27;;;;;;;5.90;1.63;;;;;;;8.54;69.88;101644.41;5378793;26;20288;-70
2024/04/12 02:18:52;;;;;;;5.87;1.67;;;;;;;8.53;69.91;101645.25;5384808;26;20248;-70
2024/04/12 02:21:21;;;;;;;6.77;1.80;;;;;;;8.53;69.94;101640.03;5391398;26;20728;-70
2024/04/12 02:23:48;;;;;;;4.73;1.50;;;;;;;8.53;69.78;101647.00;5367232;26;20282;-70
2024/04/12 02:26:17;;;;;;;6.70;1.97;;;;;;;8.50;69.93;101650.47;5384579;26;20289;-70
2024/04/12 02:28:43;;;;;;;4.80;1.90;;;;;;;8.49;69.93;101648.75;5386643;26;20334;-70
2024/04/12 02:31:14;;;;;;;11.87;2.90;;;;;;;8.47;69.66;101658.31;5375433;26;20227;-70
2024/04/12 02:33:42;;;;;;;6.80;1.57;;;;;;;8.45;70.04;101660.94;5384165;26;20274;-70
2024/04/12 02:36:16;;;;;;;9.30;1.97;;;;;;;8.44;69.60;101650.50;5398052;26;20576;-70
2024/04/12 02:38:43;;;;;;;5.90;1.57;;;;;;;8.42;69.83;101652.22;5372438;26;20288;-70
2024/04/12 02:41:14;;;;;;;6.90;1.70;;;;;;;8.40;69.65;101657.44;5393070;26;20277;-70
2024/04/12 02:43:44;;;;;;;7.50;2.80;;;;;;;8.38;70.10;101660.91;5381424;26;20228;-70
2024/04/12 02:46:16;;;;;;;11.83;1.90;;;;;;;8.37;69.82;101670.50;5387142;26;20282;-70
2024/04/12 02:48:43;;;;;;;7.67;1.90;;;;;;;8.33;69.70;101657.44;5382930;26;20274;-70
2024/04/12 02:51:13;;;;;;;7.57;2.00;;;;;;;8.31;69.64;101656.59;5379799;26;20265;-70
2024/04/12 02:53:40;;;;;;;7.37;1.70;;;;;;;8.30;69.65;101666.13;5377953;26;20239;-70
2024/04/12 02:56:11;;;;;;;8.40;2.20;;;;;;;8.29;69.67;101689.59;5388539;26;20299;-69
2024/04/12 02:58:39;;;;;;;5.97;2.30;;;;;;;8.27;69.75;101681.75;5360896;26;20280;-70
2024/04/12 03:01:08;;;;;;;7.37;2.23;;;;;;;8.26;69.79;101681.78;5390744;26;20332;-69
2024/04/12 03:03:41;;;;;;;7.13;2.13;;;;;;;8.18;69.75;101680.00;5386568;26;20228;-69
2024/04/12 03:06:10;;;;;;;6.93;2.10;;;;;;;8.22;69.61;101692.19;5378191;26;20264;-69
2024/04/12 03:08:38;;;;;;;6.90;1.60;;;;;;;8.19;69.59;101707.84;5384439;26;20343;-69
2024/04/12 03:11:21;;;;;;;10.80;2.47;;;;;;;8.17;69.85;101709.56;5377293;26;20278;-69
2024/04/12 03:13:47;;;;;;;9.27;2.10;;;;;;;8.15;69.81;101711.28;5379597;26;20557;-67
2024/04/12 03:16:16;;;;;;;9.40;2.10;;;;;;;8.14;69.89;101706.94;5386058;26;20265;-69
2024/04/12 03:18:46;;;;;;;7.10;2.00;;;;;;;8.13;69.76;101704.31;5385326;26;20276;-69
2024/04/12 03:21:18;;;;;;;9.67;2.13;;;;;;;8.10;69.82;101707.78;5373097;26;20295;-73
2024/04/12 03:23:44;;;;;;;7.90;2.20;;;;;;;8.08;69.87;101709.53;5393528;26;20226;-73
2024/04/12 03:26:18;;;;;;;7.50;1.83;;;;;;;8.07;69.80;101699.97;5374670;26;20236;-73
2024/04/12 03:28:45;;;;;;;6.30;1.80;;;;;;;8.06;69.83;101697.38;5388261;26;20226;-73
2024/04/12 03:31:14;;;;;;;12.20;2.80;;;;;;;8.01;70.00;101698.22;5382272;26;20243;-73
2024/04/12 03:33:44;;;;;;;6.00;1.73;;;;;;;7.99;69.76;101699.06;5378599;26;20332;-73
2024/04/12 03:42:04;;;;;;;8.17;2.10;;;;;;;7.92;69.94;101689.50;5545981;25;20561;-72
2024/04/12 03:44:30;;;;;;;6.80;1.90;;;;;;;7.89;69.85;101699.94;5504803;25;20232;-73
2024/04/12 03:47:01;;;;;;;6.27;1.37;;;;;;;7.86;69.98;101702.53;5512690;25;20338;-72
2024/04/12 03:49:28;;;;;;;9.37;1.93;;;;;;;7.86;70.05;101703.38;5502121;25;20228;-72
2024/04/12 03:51:58;;;;;;;4.83;2.03;;;;;;;7.85;69.85;101703.38;5491081;25;20298;-73
2024/04/12 03:54:25;;;;;;;10.70;2.43;;;;;;;7.82;70.14;101703.38;5497880;25;20326;-73
2024/04/12 03:56:56;;;;;;;12.77;2.20;;;;;;;7.78;70.03;101700.75;5491070;25;20243;-72
2024/04/12 03:59:27;;;;;;;10.23;2.27;;;;;;;7.78;70.20;101708.56;5498808;25;20572;-73
2024/04/12 04:01:57;;;;;;;8.00;2.43;;;;;;;7.75;70.29;101718.09;5505801;25;20331;-72
2024/04/12 04:04:37;;;;;;;11.03;2.27;;;;;;;7.74;70.36;101719.84;5508265;25;20282;-72
2024/04/12 04:07:03;;;;;;;9.70;2.13;;;;;;;7.73;70.29;101718.09;5498110;25;20220;-73
2024/04/12 04:09:32;;;;;;;8.33;2.23;;;;;;;7.72;70.36;101715.50;5507935;25;20279;-73
2024/04/12 04:11:59;;;;;;;10.40;2.00;;;;;;;7.71;70.19;101722.44;5487820;25;20223;-74
2024/04/12 04:14:32;;;;;;;10.50;2.37;;;;;;;7.71;70.29;101725.06;5499859;25;20326;-74
2024/04/12 04:17:00;;;;;;;6.73;1.97;;;;;;;7.67;70.39;101728.50;5500420;25;20712;-73
2024/04/12 04:19:35;;;;;;;6.07;1.83;;;;;;;7.69;70.34;101728.50;5500146;25;20232;-73
2024/04/12 04:22:03;;;;;;;9.23;2.40;;;;;;;7.68;70.38;101740.66;5501155;25;20227;-74
2024/04/12 04:24:32;;;;;;;11.27;2.10;;;;;;;7.65;70.37;101730.25;5498781;25;20228;-74
2024/04/12 04:26:58;;;;;;;7.07;2.30;;;;;;;7.68;70.38;101737.16;5499724;25;20272;-74
2024/04/12 04:29:29;;;;;;;13.10;2.73;;;;;;;7.67;70.50;101741.50;5510095;25;20232;-73
2024/04/12 04:31:56;;;;;;;9.50;2.17;;;;;;;7.66;70.35;101750.19;5500737;25;20236;-68
2024/04/12 04:34:25;;;;;;;8.27;2.07;;;;;;;7.67;70.58;101746.72;5488973;25;20270;-69
2024/04/12 04:36:56;;;;;;;13.10;2.77;;;;;;;7.68;70.39;101760.59;5488567;25;21560;-68
2024/04/12 04:39:25;;;;;;;10.27;2.27;;;;;;;7.67;70.52;101759.75;5494607;25;20916;-69
2024/04/12 04:41:52;;;;;;;7.93;1.97;;;;;;;7.63;70.52;101752.78;5509363;25;20346;-69
2024/04/12 04:44:22;;;;;;;8.83;2.03;;;;;;;7.66;70.59;101754.53;5503165;25;20828;-69
2024/04/12 04:46:51;;;;;;;12.07;2.50;;;;;;;7.69;70.43;101764.97;5506802;25;20232;-69
2024/04/12 04:49:23;;;;;;;11.17;2.60;;;;;;;7.68;70.55;101764.09;5505911;25;20349;-69
2024/04/12 04:51:49;;;;;;;9.07;2.70;;;;;;;7.68;70.62;101765.81;5495195;25;20271;-69
2024/04/12 04:54:19;;;;;;;7.40;2.10;;;;;;;7.68;70.29;101764.09;5489527;26;20239;-70
2024/04/12 04:56:45;;;;;;;8.50;2.03;;;;;;;7.70;70.61;101767.56;5487401;26;20267;-70
2024/04/12 04:59:16;;;;;;;13.23;2.83;;;;;;;7.71;70.56;101771.06;5490444;26;20231;-70
2024/04/12 05:01:48;;;;;;;9.57;2.30;;;;;;;7.70;70.58;101762.34;5482393;26;20234;-70
2024/04/12 05:04:21;;;;;;;10.70;2.40;;;;;;;7.72;70.79;101768.47;5502449;26;20566;-71
2024/04/12 05:06:47;;;;;;;16.07;2.97;;;;;;;7.73;70.79;101766.72;5485878;26;20336;-71
2024/04/12 05:09:18;;;;;;;8.60;2.53;;;;;;;7.73;70.48;101764.13;5491389;26;20233;-71
2024/04/12 05:11:44;;;;;;;7.70;1.93;;;;;;;7.74;70.27;101765.88;5488457;26;20229;-71
2024/04/12 05:16:56;;;;;;;12.57;2.50;;;;;;;7.80;70.46;101780.66;5486795;26;20776;-73
2024/04/12 05:19:25;;;;;;;9.43;2.10;;;;;;;7.81;70.52;101780.66;5488202;26;20290;-73
2024/04/12 05:21:59;;;;;;;9.93;2.17;;;;;;;7.84;70.49;101787.63;5482754;26;20234;-72
2024/04/12 05:24:25;;;;;;;12.57;2.27;;;;;;;7.83;70.53;101778.06;5489450;26;20270;-72
2024/04/12 05:27:01;;;;;;;10.80;2.53;;;;;;;7.88;70.48;101773.72;5493183;26;20573;-72
2024/04/12 05:29:30;;;;;;;11.57;2.43;;;;;;;7.91;70.40;101792.00;5480522;26;20279;-72
2024/04/12 05:31:56;;;;;;;10.10;2.27;;;;;;;7.92;70.45;101794.59;5494551;26;20223;-72
2024/04/12 05:34:28;;;;;;;13.17;2.60;;;;;;;7.95;70.39;101797.22;5492808;26;20295;-72
2024/04/12 05:36:55;;;;;;;11.73;2.90;;;;;;;7.97;70.33;101794.66;5489285;26;21078;-73
2024/04/12 05:39:24;;;;;;;9.17;2.17;;;;;;;8.00;70.26;101799.88;5479619;26;20291;-71
2024/04/12 05:41:53;;;;;;;6.60;1.90;;;;;;;8.01;70.11;101799.00;5469957;26;20777;-75
2024/04/12 05:44:21;;;;;;;10.53;2.60;;;;;;;8.00;70.23;101805.94;5486755;26;20709;-75
2024/04/12 05:46:47;;;;;;;8.30;2.10;;;;;;;8.07;70.37;101804.22;5488154;26;20240;-75
2024/04/12 05:49:20;;;;;;;7.97;1.97;;;;;;;8.07;70.10;101799.00;5479109;26;20226;-75
2024/04/12 05:51:49;;;;;;;6.13;1.70;;;;;;;8.08;70.06;101790.34;5501928;26;20230;-75
2024/04/12 05:54:18;;;;;;;9.70;2.33;;;;;;;8.05;69.88;101792.03;5483743;26;20266;-75
2024/04/12 05:56:44;;;;;;;7.00;2.00;;;;;;;8.13;69.98;101814.66;5479252;26;20331;-75
2024/04/12 05:59:13;;;;;;;9.50;2.20;;;;;;;8.15;69.85;101809.47;5483348;26;20229;-74
2024/04/12 06:01:43;;;;;;;11.03;2.23;;;;;;;8.18;69.90;101819.91;5477290;26;20836;-76
2024/04/12 06:04:14;;;;;;;9.00;2.83;;;;;;;8.20;69.85;101815.59;5475241;26;20229;-76
2024/04/12 06:06:42;;;;;;;9.57;2.40;;;;;;;8.24;69.71;101825.16;5490620;26;20263;-76
2024/04/12 06:09:19;;;;;;;6.37;2.20;;;;;;;8.26;69.59;101814.75;5480842;26;20321;-75
2024/04/12 06:11:50;;;;;;;11.67;2.47;;;;;;;8.29;69.65;101814.75;5499138;26;20344;-75
2024/04/12 06:14:20;;;;;;;12.17;2.53;;;;;;;8.31;69.57;101810.41;5490225;26;20229;-76
2024/04/12 06:16:47;;;;;;;10.80;2.70;;;;;;;8.33;69.49;101809.53;5493916;26;20843;-75
2024/04/12 06:19:17;;;;;;;8.87;2.13;;;;;;;8.34;69.53;101802.59;5475744;26;20232;-75
2024/04/12 06:21:45;;;;;;;8.80;2.80;;;;;;;8.37;69.67;101795.66;5482037;26;20228;-76
2024/04/12 06:24:25;;;;;;;11.53;2.93;;;;;;;8.37;69.58;101797.41;5473623;26;20229;-75
2024/04/12 06:26:54;;;;;;;6.40;2.20;;;;;;;8.36;69.60;101788.72;5479596;26;20240;-75
2024/04/12 06:29:26;;;;;;;8.10;2.47;;;;;;;8.39;69.31;101787.81;5482301;26;20241;-75
2024/04/12 06:31:53;;;;;;;10.67;2.03;;;;;;;8.44;69.23;101791.31;5480360;26;20244;-74
2024/04/12 06:34:23;;;;;;;9.60;2.03;;;;;;;8.48;69.47;101785.25;5502406;26;20239;-74
2024/04/12 06:36:56;;;;;;;10.77;2.13;;;;;;;8.53;69.29;101791.31;5485103;26;20237;-74
2024/04/12 06:39:31;;;;;;;9.37;2.10;;;;;;;8.55;69.10;101789.59;5496856;26;20245;-74
2024/04/12 06:42:03;;;;;;;10.17;2.17;;;;;;;8.57;69.26;101793.09;5445969;26;20243;-74
2024/04/12 06:44:32;;;;;;;11.33;2.10;;;;;;;8.60;69.10;101793.09;5448419;26;20234;-73
2024/04/12 06:46:58;;;;;;;11.20;2.50;;;;;;;8.64;68.96;101805.25;5443848;26;20282;-73
2024/04/12 06:49:29;;;;;;;12.57;2.70;;;;;;;8.70;69.09;101809.63;5450409;26;20679;-74
2024/04/12 06:52:11;;;;;;;9.90;2.33;;;;;;;8.74;68.94;101805.31;5447022;26;20676;-73
2024/04/12 06:54:47;;;;;;;10.53;2.60;;;;;;;8.79;68.90;101803.53;5444209;26;20231;-73
2024/04/12 06:57:17;;;;;;;9.70;2.43;;;;;;;8.82;68.87;101793.13;5459811;26;20277;-73
2024/04/12 06:59:47;;;;;;;9.67;2.30;;;;;;;8.86;68.88;101798.34;5445281;26;20238;-74
2024/04/12 07:02:14;;;;;;;10.57;2.10;;;;;;;8.93;68.81;101811.41;5454317;26;20330;-73
2024/04/12 07:04:43;;;;;;;10.40;2.20;;;;;;;8.95;68.65;101810.53;5447600;26;20230;-74
2024/04/12 07:07:10;;;;;;;12.10;2.70;;;;;;;9.02;68.73;101809.69;5440379;26;20234;-74
2024/04/12 07:09:45;;;;;;;7.60;2.10;;;;;;;9.08;68.65;101806.19;5454840;26;20581;-75
2024/04/12 07:12:14;;;;;;;17.40;2.60;;;;;;;9.16;68.88;101803.56;5444412;26;20699;-75
2024/04/12 07:14:46;;;;;;;11.73;2.40;;;;;;;9.23;68.70;101800.97;5451777;26;20217;-75
2024/04/12 07:17:20;;;;;;;9.27;2.07;;;;;;;9.28;68.52;101806.22;5461602;26;20283;-75
2024/04/12 07:19:51;;;;;;;9.67;1.97;;;;;;;9.35;68.09;101811.41;5443253;26;20227;-75
2024/04/12 07:22:18;;;;;;;7.93;2.23;;;;;;;9.43;68.34;101824.47;5442862;26;20274;-73
2024/04/12 07:24:50;;;;;;;11.83;3.27;;;;;;;9.48;68.14;101814.91;5449833;26;20272;-73
2024/04/12 07:27:22;;;;;;;9.87;2.40;;;;;;;9.56;68.00;101810.53;5444384;26;20234;-74
2024/04/12 07:29:52;;;;;;;14.53;2.87;;;;;;;9.64;67.92;101817.47;5444310;26;20766;-73
2024/04/12 07:32:22;;;;;;;8.63;2.13;;;;;;;9.73;67.73;101833.13;5442849;26;20224;-73
2024/04/12 07:34:51;;;;;;;9.67;2.20;;;;;;;9.80;67.59;101834.88;5451561;26;20228;-73
2024/04/12 07:37:26;;;;;;;6.93;1.90;;;;;;;9.88;67.78;101827.88;5458367;26;20274;-73
2024/04/12 07:40:15;;;;;;;11.43;2.17;;;;;;;9.95;67.65;101829.59;5460982;26;21221;-72
2024/04/12 07:42:46;;;;;;;10.37;2.97;;;;;;;10.08;66.87;101840.91;5482201;26;20270;-73
2024/04/12 07:45:23;;;;;;;8.77;2.20;;;;;;;10.15;66.89;101826.03;5485015;26;20265;-75
2024/04/12 07:47:53;;;;;;;9.60;2.80;;;;;;;10.23;67.02;101829.50;5470094;26;20798;-75
2024/04/12 07:50:28;;;;;;;12.17;2.47;;;;;;;10.28;66.96;101825.13;5473017;26;20724;-76
2024/04/12 07:52:57;;;;;;;8.03;2.20;;;;;;;10.35;66.40;101833.78;5486996;26;20229;-77
2024/04/12 07:55:26;;;;;;;8.33;2.20;;;;;;;10.43;66.20;101837.25;5487296;26;20237;-76
2024/04/12 07:57:55;;;;;;;12.70;2.13;;;;;;;10.48;66.20;101833.72;5492983;26;20241;-76
2024/04/12 08:00:35;;;;;;;8.40;2.23;;;;;;;10.49;65.83;101826.75;5492475;26;20239;-78
2024/04/12 08:03:06;;;;;;;10.03;2.37;;;;;;;10.58;65.71;101841.53;5503698;26;20705;-79
2024/04/12 08:05:59;;;;;;;8.73;2.20;;;;;;;10.59;65.72;101833.69;5479004;26;20744;-76
2024/04/12 08:08:27;;;;;;;5.97;1.93;;;;;;;10.66;65.17;101829.28;5486328;26;20219;-80
2024/04/12 08:10:57;;;;;;;9.47;2.33;;;;;;;10.68;64.87;101838.00;5477282;26;20241;-78
2024/04/12 08:13:28;;;;;;;7.43;1.97;;;;;;;10.71;64.92;101838.84;5488247;26;20629;-77
2024/04/12 08:15:59;;;;;;;10.27;2.80;;;;;;;10.75;65.06;101830.97;5485671;26;20362;-78
2024/04/12 08:18:26;;;;;;;8.70;2.27;;;;;;;10.78;64.74;101841.41;5494007;26;20260;-77
2024/04/12 08:21:01;;;;;;;9.23;2.27;;;;;;;10.81;64.17;101849.25;5482778;26;20281;-75
2024/04/12 08:23:29;;;;;;;9.80;2.97;;;;;;;10.81;64.13;101842.28;5503186;26;20317;-76
2024/04/12 08:25:58;;;;;;;6.23;2.30;;;;;;;10.84;64.24;101849.22;5488412;26;20246;-76
2024/04/12 08:28:27;;;;;;;8.83;2.93;;;;;;;10.85;64.17;101851.88;5484113;26;20958;-73
2024/04/12 08:31:05;;;;;;;9.27;2.57;;;;;;;10.88;64.21;101862.31;5496768;26;20259;-74
2024/04/12 08:33:32;;;;;;;10.50;2.53;;;;;;;10.89;63.60;101850.97;5495745;26;20267;-74
2024/04/12 08:36:02;;;;;;;8.70;2.37;;;;;;;10.90;63.52;101860.56;5476346;26;20615;-75
2024/04/12 08:38:28;;;;;;;7.83;2.30;;;;;;;10.92;63.17;101848.34;5504514;26;20229;-74
2024/04/12 08:41:08;;;;;;;9.50;2.77;;;;;;;10.95;63.13;101854.41;5491932;26;20313;-75
2024/04/12 08:43:41;;;;;;;8.17;2.07;;;;;;;10.96;63.40;101845.72;5485346;26;20230;-75
2024/04/12 08:46:21;;;;;;;8.07;2.40;;;;;;;10.97;63.13;101844.81;5494110;26;20720;-75
2024/04/12 08:48:49;;;;;;;7.67;2.20;;;;;;;10.98;63.10;101836.06;5483994;26;20228;-76
2024/04/12 08:51:21;;;;;;;5.50;2.00;;;;;;;10.99;62.87;101832.59;5493127;26;20727;-75
2024/04/12 08:53:55;;;;;;;8.03;2.10;;;;;;;11.00;62.92;101829.94;5497371;26;20277;-74
2024/04/12 08:56:28;;;;;;;8.87;2.07;;;;;;;11.02;62.96;101827.31;5487455;26;20281;-75
2024/04/12 08:59:05;;;;;;;6.27;1.90;;;;;;;11.04;62.90;101826.44;5493281;26;20268;-75
2024/04/12 09:01:37;;;;;;;13.53;2.83;;;;;;;11.04;63.00;101831.69;5485933;26;20226;-73
2024/04/12 09:04:04;;;;;;;5.97;1.97;;;;;;;11.08;62.42;101837.75;5486430;26;20227;-75
2024/04/12 09:06:35;;;;;;;7.50;1.97;;;;;;;11.10;62.49;101830.75;5497352;26;20230;-74
2024/04/12 09:09:01;;;;;;;9.30;1.90;;;;;;;11.12;62.55;101834.22;5484141;26;20231;-75
2024/04/12 09:11:31;;;;;;;8.93;2.27;;;;;;;11.13;62.29;101836.84;5474158;26;20232;-76
2024/04/12 09:14:09;;;;;;;7.47;2.10;;;;;;;11.15;62.43;101831.56;5488484;26;20625;-77
2024/04/12 09:16:43;;;;;;;5.70;2.40;;;;;;;11.17;62.06;101829.81;5483922;26;20231;-76
2024/04/12 09:19:14;;;;;;;7.47;2.00;;;;;;;11.20;62.32;101835.03;5477739;26;20227;-74
2024/04/12 09:21:58;;;;;;;7.17;2.00;;;;;;;11.22;62.14;101854.22;5489379;26;20262;-73
2024/04/12 09:24:31;;;;;;;4.27;1.80;;;;;;;11.24;61.60;101869.91;5488632;26;20224;-75
2024/04/12 09:27:09;;;;;;;7.27;1.80;;;;;;;11.26;62.07;101869.03;5493818;26;20259;-74
2024/04/12 09:29:43;;;;;;;7.00;1.90;;;;;;;11.27;61.57;101862.94;5483937;26;20230;-75
2024/04/12 09:34:58;;;;;;;9.23;2.23;;;;;;;11.31;62.25;101874.25;5498089;26;20362;-77
2024/04/12 09:37:38;;;;;;;8.07;2.10;;;;;;;11.31;61.70;101866.38;5474545;26;20228;-75
2024/04/12 09:40:16;;;;;;;6.10;1.67;;;;;;;11.35;61.61;101863.75;5488074;26;20280;-74
2024/04/12 09:43:24;;;;;;;9.00;2.13;;;;;;;11.38;61.87;101861.09;5485641;26;20755;-72
2024/04/12 09:45:49;;;;;;;5.63;1.80;;;;;;;11.41;61.50;101861.91;5483827;26;20265;-70
2024/04/12 10:38:35;;;;;;;8.43;2.00;;;;;;;11.85;59.24;101808.19;5420309;26;20726;-74
2024/04/12 10:41:07;;;;;;;6.87;2.10;;;;;;;11.86;59.37;101786.31;5417135;26;20347;-73
2024/04/12 10:43:37;;;;;;;9.17;2.10;;;;;;;11.88;59.41;101766.22;5417291;26;20265;-72
2024/04/12 10:46:10;;;;;;;7.83;2.23;;;;;;;11.90;59.41;101752.19;5417386;26;20271;-72
2024/04/12 10:48:39;;;;;;;5.70;2.07;;;;;;;11.91;59.07;101753.91;5414719;26;20330;-72
2024/04/12 10:51:08;;;;;;;10.23;2.50;;;;;;;11.94;58.75;101758.25;5416154;26;20302;-72
2024/04/12 10:53:38;;;;;;;10.07;2.50;;;;;;;11.94;58.73;101759.13;5417172;26;20221;-72
2024/04/12 10:56:07;;;;;;;6.30;1.93;;;;;;;11.96;58.53;101761.75;5411769;26;20221;-72
2024/04/12 10:58:43;;;;;;;4.63;1.80;;;;;;;11.98;58.55;101759.97;5417199;26;20275;-72
2024/04/12 11:01:09;;;;;;;9.70;2.10;;;;;;;12.02;58.80;101756.41;5417028;26;20232;-73
2024/04/12 11:03:38;;;;;;;6.63;2.20;;;;;;;12.02;58.82;101746.78;5416669;26;20330;-73
2024/04/12 11:06:17;;;;;;;7.17;2.27;;;;;;;12.05;58.85;101745.88;5413976;26;20223;-75
2024/04/12 11:08:48;;;;;;;11.17;2.60;;;;;;;12.09;58.43;101734.47;5412019;26;20741;-76
2024/04/12 11:11:19;;;;;;;8.10;2.33;;;;;;;12.10;58.52;101748.44;5417061;26;20729;-76
2024/04/12 11:13:52;;;;;;;10.33;2.70;;;;;;;12.15;58.88;101747.50;5410330;26;20261;-76
2024/04/12 11:33:04;;;;;;;5.87;2.03;;;;;;;12.42;58.36;101763.75;5419134;26;20606;-73
2024/04/12 11:35:34;;;;;;;9.20;2.30;;;;;;;12.44;58.36;101770.72;5417011;26;20265;-76
2024/04/12 11:38:13;;;;;;;9.80;2.13;;;;;;;12.47;58.09;101768.06;5416671;26;20225;-76
2024/04/12 11:40:40;;;;;;;9.87;1.80;;;;;;;12.49;58.65;101763.66;5416430;26;20595;-76
2024/04/12 11:43:09;;;;;;;8.60;2.53;;;;;;;12.50;57.76;101738.28;5416480;26;20575;-76
2024/04/12 11:45:41;;;;;;;6.70;2.20;;;;;;;12.56;58.24;101764.44;5415759;26;20218;-76
2024/04/12 11:48:14;;;;;;;8.60;2.67;;;;;;;12.63;58.31;101771.34;5414241;26;20260;-74
2024/04/12 11:50:41;;;;;;;10.97;2.73;;;;;;;12.66;57.99;101768.66;5415870;26;20216;-75
2024/04/12 11:53:13;;;;;;;8.23;2.10;;;;;;;12.68;57.16;101758.97;5416505;26;20261;-75
2024/04/12 11:55:39;;;;;;;7.20;2.20;;;;;;;12.73;57.90;101754.53;5416436;26;20301;-74
2024/04/12 11:58:08;;;;;;;10.37;2.20;;;;;;;12.77;57.77;101746.59;5415974;26;20667;-76
2024/04/12 12:00:37;;;;;;;10.83;2.60;;;;;;;12.83;56.95;101749.13;5416437;26;20261;-76
2024/04/12 12:03:06;;;;;;;8.27;2.23;;;;;;;12.86;57.12;101735.94;5418627;26;20222;-74
2024/04/12 12:05:37;;;;;;;7.63;2.33;;;;;;;12.88;56.73;101710.53;5416152;26;20287;-73
2024/04/12 12:08:12;;;;;;;7.13;2.33;;;;;;;12.92;56.22;101693.84;5419765;26;20256;-75
2024/04/12 12:10:43;;;;;;;9.80;2.07;;;;;;;12.95;56.82;101678.03;5417076;26;20265;-74
2024/04/12 12:13:13;;;;;;;7.30;2.37;;;;;;;12.99;56.76;101679.69;5415666;26;20224;-74
2024/04/12 12:15:42;;;;;;;5.60;1.90;;;;;;;12.97;56.60;101676.22;5419679;26;20221;-74
2024/04/12 12:18:10;;;;;;;8.13;2.83;;;;;;;13.06;56.18;101690.94;5413311;26;20257;-75
2024/04/12 12:20:36;;;;;;;9.43;2.30;;;;;;;13.07;56.14;101680.41;5419767;26;20369;-74
2024/04/12 12:23:05;;;;;;;7.93;2.20;;;;;;;13.10;56.41;101672.47;5419363;26;20266;-74
2024/04/12 12:25:31;;;;;;;8.27;2.30;;;;;;;13.13;55.88;101658.41;5419165;26;20332;-74
2024/04/12 12:28:02;;;;;;;8.33;2.43;;;;;;;13.17;56.05;101658.34;5419358;26;20703;-73
2024/04/12 12:30:28;;;;;;;10.73;3.00;;;;;;;13.19;55.84;101645.16;5416035;26;20215;-73
2024/04/12 12:32:57;;;;;;;9.93;2.37;;;;;;;13.18;55.18;101654.81;5419455;26;20301;-73
2024/04/12 12:35:22;;;;;;;10.10;2.30;;;;;;;13.23;55.47;101661.72;5417871;26;20227;-73
2024/04/12 12:37:51;;;;;;;10.90;2.97;;;;;;;13.24;54.94;101661.69;5419399;26;20832;-74
2024/04/12 12:40:20;;;;;;;9.07;2.33;;;;;;;13.25;55.39;101654.69;5419530;26;20231;-76
2024/04/12 12:42:51;;;;;;;12.57;2.73;;;;;;;13.30;54.74;101652.84;5418289;26;20226;-74
2024/04/12 12:45:20;;;;;;;9.07;3.13;;;;;;;13.32;54.95;101645.78;5419423;26;20266;-74
2024/04/12 12:47:49;;;;;;;14.53;2.60;;;;;;;13.34;55.19;101634.34;5419260;26;20631;-74
2024/04/12 12:50:23;;;;;;;12.37;2.57;;;;;;;13.35;55.15;101638.69;5419243;26;20571;-78
2024/04/12 12:52:53;;;;;;;9.43;2.70;;;;;;;13.39;55.07;101637.72;5418717;26;20226;-76
2024/04/12 12:55:21;;;;;;;8.83;2.77;;;;;;;13.42;54.55;101623.66;5419222;26;20695;-77
2024/04/12 12:57:57;;;;;;;8.60;2.80;;;;;;;13.43;55.03;101638.56;5418009;26;20758;-76
2024/04/12 13:00:33;;;;;;;12.27;2.80;;;;;;;13.47;54.72;101624.44;5419260;26;20258;-80
2024/04/12 13:03:10;;;;;;;13.60;3.20;;;;;;;13.48;54.37;101618.28;5419290;26;20726;-79